sensor_id;sensor_type;location;lat;lon;timestamp;P1;durP1;ratioP1;P2;durP2;ratioP2
4597;SDS011;62772;48.646;8.906;2024-01-25T00:03:08;16.87;;;3.40;;
4597;SDS011;62772;48.646;8.906;2024-01-25T00:08:08;17.67;;;4.70;;
4597;SDS011;62772;48.646;8.906;2024-01-25T00:13:09;22.53;;;3.93;;
4597;SDS011;62772;48.646;8.906;2024-01-25T00:18:09;12.07;;;3.50;;
4597;SDS011;62772;48.646;8.906;2024-01-25T00:23:13;21.37;;;5.27;;
4597;SDS011;62772;48.646;8.906;2024-01-25T00:28:13;14.77;;;3.57;;
4597;SDS011;62772;48.646;8.906;2024-01-25T00:33:13;13.73;;;3.33;;
4597;SDS011;62772;48.646;8.906;2024-01-25T00:38:14;13.73;;;3.83;;
4597;SDS011;62772;48.646;8.906;2024-01-25T00:43:15;13.37;;;3.47;;
4597;SDS011;62772;48.646;8.906;2024-01-25T00:48:15;9.37;;;4.30;;
4597;SDS011;62772;48.646;8.906;2024-01-25T00:53:16;21.30;;;3.57;;
4597;SDS011;62772;48.646;8.906;2024-01-25T00:58:17;15.00;;;3.60;;
4597;SDS011;62772;48.646;8.906;2024-01-25T01:03:18;8.63;;;2.77;;
4597;SDS011;62772;48.646;8.906;2024-01-25T01:08:19;14.33;;;3.00;;
4597;SDS011;62772;48.646;8.906;2024-01-25T01:13:20;30.57;;;5.27;;
4597;SDS011;62772;48.646;8.906;2024-01-25T01:18:20;15.37;;;3.43;;
4597;SDS011;62772;48.646;8.906;2024-01-25T01:23:21;11.40;;;3.33;;
4597;SDS011;62772;48.646;8.906;2024-01-25T01:28:21;17.27;;;3.20;;
4597;SDS011;62772;48.646;8.906;2024-01-25T01:33:22;12.00;;;2.50;;
4597;SDS011;62772;48.646;8.906;2024-01-25T01:38:22;15.27;;;3.40;;
4597;SDS011;62772;48.646;8.906;2024-01-25T01:43:23;13.40;;;3.20;;
4597;SDS011;62772;48.646;8.906;2024-01-25T01:48:23;14.20;;;3.97;;
4597;SDS011;62772;48.646;8.906;2024-01-25T01:53:24;16.60;;;3.50;;
4597;SDS011;62772;48.646;8.906;2024-01-25T01:58:24;22.23;;;4.60;;
4597;SDS011;62772;48.646;8.906;2024-01-25T02:03:27;16.00;;;4.40;;
4597;SDS011;62772;48.646;8.906;2024-01-25T02:08:30;18.57;;;3.90;;
4597;SDS011;62772;48.646;8.906;2024-01-25T02:13:30;16.40;;;4.20;;
4597;SDS011;62772;48.646;8.906;2024-01-25T02:18:31;12.73;;;3.40;;
4597;SDS011;62772;48.646;8.906;2024-01-25T02:23:32;17.23;;;3.43;;
4597;SDS011;62772;48.646;8.906;2024-01-25T02:28:32;14.93;;;3.50;;
4597;SDS011;62772;48.646;8.906;2024-01-25T02:33:34;20.00;;;4.20;;
4597;SDS011;62772;48.646;8.906;2024-01-25T02:38:35;21.07;;;3.60;;
4597;SDS011;62772;48.646;8.906;2024-01-25T02:43:35;20.43;;;3.53;;
4597;SDS011;62772;48.646;8.906;2024-01-25T02:48:36;13.27;;;3.17;;
4597;SDS011;62772;48.646;8.906;2024-01-25T02:53:36;16.53;;;2.80;;
4597;SDS011;62772;48.646;8.906;2024-01-25T02:58:37;15.73;;;3.37;;
4597;SDS011;62772;48.646;8.906;2024-01-25T03:03:37;17.00;;;3.37;;
4597;SDS011;62772;48.646;8.906;2024-01-25T03:08:39;8.87;;;2.93;;
4597;SDS011;62772;48.646;8.906;2024-01-25T03:13:40;21.50;;;3.63;;
4597;SDS011;62772;48.646;8.906;2024-01-25T03:18:40;19.53;;;3.97;;
4597;SDS011;62772;48.646;8.906;2024-01-25T03:23:40;10.43;;;2.50;;
4597;SDS011;62772;48.646;8.906;2024-01-25T03:28:41;13.73;;;3.40;;
4597;SDS011;62772;48.646;8.906;2024-01-25T03:33:41;13.23;;;3.20;;
4597;SDS011;62772;48.646;8.906;2024-01-25T03:38:42;11.47;;;3.07;;
4597;SDS011;62772;48.646;8.906;2024-01-25T03:43:43;12.30;;;3.10;;
4597;SDS011;62772;48.646;8.906;2024-01-25T03:48:44;11.90;;;3.70;;
4597;SDS011;62772;48.646;8.906;2024-01-25T03:53:45;10.93;;;3.30;;
4597;SDS011;62772;48.646;8.906;2024-01-25T03:58:45;21.40;;;3.37;;
4597;SDS011;62772;48.646;8.906;2024-01-25T04:03:46;14.33;;;3.50;;
4597;SDS011;62772;48.646;8.906;2024-01-25T04:08:47;17.40;;;3.50;;
4597;SDS011;62772;48.646;8.906;2024-01-25T04:13:47;12.83;;;3.27;;
4597;SDS011;62772;48.646;8.906;2024-01-25T04:18:48;13.63;;;3.43;;
4597;SDS011;62772;48.646;8.906;2024-01-25T04:23:48;10.77;;;2.93;;
4597;SDS011;62772;48.646;8.906;2024-01-25T04:28:49;14.30;;;3.60;;
4597;SDS011;62772;48.646;8.906;2024-01-25T04:33:49;9.53;;;2.70;;
4597;SDS011;62772;48.646;8.906;2024-01-25T04:38:50;12.40;;;3.10;;
4597;SDS011;62772;48.646;8.906;2024-01-25T04:43:50;16.10;;;3.80;;
4597;SDS011;62772;48.646;8.906;2024-01-25T04:48:50;15.30;;;3.53;;
4597;SDS011;62772;48.646;8.906;2024-01-25T04:53:51;14.03;;;3.60;;
4597;SDS011;62772;48.646;8.906;2024-01-25T04:58:51;11.60;;;3.00;;
4597;SDS011;62772;48.646;8.906;2024-01-25T05:03:52;10.37;;;2.93;;
4597;SDS011;62772;48.646;8.906;2024-01-25T05:08:53;10.63;;;3.30;;
4597;SDS011;62772;48.646;8.906;2024-01-25T05:13:53;11.73;;;3.43;;
4597;SDS011;62772;48.646;8.906;2024-01-25T05:18:53;12.13;;;2.93;;
4597;SDS011;62772;48.646;8.906;2024-01-25T05:23:54;15.80;;;3.20;;
4597;SDS011;62772;48.646;8.906;2024-01-25T05:28:54;12.30;;;3.93;;
4597;SDS011;62772;48.646;8.906;2024-01-25T05:33:55;7.63;;;3.13;;
4597;SDS011;62772;48.646;8.906;2024-01-25T05:38:55;12.90;;;3.23;;
4597;SDS011;62772;48.646;8.906;2024-01-25T05:43:55;14.30;;;3.93;;
4597;SDS011;62772;48.646;8.906;2024-01-25T05:48:56;12.83;;;3.80;;
4597;SDS011;62772;48.646;8.906;2024-01-25T05:53:56;12.77;;;4.40;;
4597;SDS011;62772;48.646;8.906;2024-01-25T05:58:57;8.23;;;3.73;;
4597;SDS011;62772;48.646;8.906;2024-01-25T06:03:57;12.40;;;3.87;;
4597;SDS011;62772;48.646;8.906;2024-01-25T06:08:57;14.13;;;3.40;;
4597;SDS011;62772;48.646;8.906;2024-01-25T06:13:58;14.43;;;3.67;;
4597;SDS011;62772;48.646;8.906;2024-01-25T06:18:59;12.30;;;4.23;;
4597;SDS011;62772;48.646;8.906;2024-01-25T06:24:00;13.33;;;3.90;;
4597;SDS011;62772;48.646;8.906;2024-01-25T06:29:01;9.67;;;3.90;;
4597;SDS011;62772;48.646;8.906;2024-01-25T06:34:01;12.97;;;3.97;;
4597;SDS011;62772;48.646;8.906;2024-01-25T06:39:02;17.07;;;4.37;;
4597;SDS011;62772;48.646;8.906;2024-01-25T06:44:04;13.00;;;5.10;;
4597;SDS011;62772;48.646;8.906;2024-01-25T06:49:04;20.67;;;6.57;;
4597;SDS011;62772;48.646;8.906;2024-01-25T06:54:05;12.17;;;5.10;;
4597;SDS011;62772;48.646;8.906;2024-01-25T06:59:05;16.97;;;6.50;;
4597;SDS011;62772;48.646;8.906;2024-01-25T07:04:06;13.33;;;4.00;;
4597;SDS011;62772;48.646;8.906;2024-01-25T07:09:06;7.97;;;3.33;;
4597;SDS011;62772;48.646;8.906;2024-01-25T07:14:07;12.00;;;3.97;;
4597;SDS011;62772;48.646;8.906;2024-01-25T07:19:07;20.80;;;3.73;;
4597;SDS011;62772;48.646;8.906;2024-01-25T07:24:08;10.40;;;3.50;;
4597;SDS011;62772;48.646;8.906;2024-01-25T07:29:09;14.43;;;4.20;;
4597;SDS011;62772;48.646;8.906;2024-01-25T07:34:09;14.97;;;5.13;;
4597;SDS011;62772;48.646;8.906;2024-01-25T07:39:10;16.73;;;4.60;;
4597;SDS011;62772;48.646;8.906;2024-01-25T07:44:12;15.07;;;4.87;;
4597;SDS011;62772;48.646;8.906;2024-01-25T07:49:13;11.73;;;4.10;;
4597;SDS011;62772;48.646;8.906;2024-01-25T07:54:13;17.13;;;5.33;;
4597;SDS011;62772;48.646;8.906;2024-01-25T07:59:14;16.50;;;4.90;;
4597;SDS011;62772;48.646;8.906;2024-01-25T08:04:15;10.50;;;4.40;;
4597;SDS011;62772;48.646;8.906;2024-01-25T08:09:15;14.00;;;5.43;;
4597;SDS011;62772;48.646;8.906;2024-01-25T08:14:15;14.77;;;5.50;;
4597;SDS011;62772;48.646;8.906;2024-01-25T08:19:16;14.40;;;5.33;;
4597;SDS011;62772;48.646;8.906;2024-01-25T08:24:16;21.87;;;4.30;;
4597;SDS011;62772;48.646;8.906;2024-01-25T08:29:17;20.20;;;6.77;;
4597;SDS011;62772;48.646;8.906;2024-01-25T08:34:17;23.87;;;6.67;;
4597;SDS011;62772;48.646;8.906;2024-01-25T08:39:17;15.90;;;5.13;;
4597;SDS011;62772;48.646;8.906;2024-01-25T08:44:18;18.43;;;5.20;;
4597;SDS011;62772;48.646;8.906;2024-01-25T08:49:18;38.90;;;13.40;;
4597;SDS011;62772;48.646;8.906;2024-01-25T08:54:19;18.00;;;6.67;;
4597;SDS011;62772;48.646;8.906;2024-01-25T08:59:19;19.00;;;5.50;;
4597;SDS011;62772;48.646;8.906;2024-01-25T09:04:20;13.40;;;4.30;;
4597;SDS011;62772;48.646;8.906;2024-01-25T09:09:20;19.07;;;5.30;;
4597;SDS011;62772;48.646;8.906;2024-01-25T09:14:20;19.27;;;4.47;;
4597;SDS011;62772;48.646;8.906;2024-01-25T09:19:21;17.67;;;4.43;;
4597;SDS011;62772;48.646;8.906;2024-01-25T09:24:22;15.40;;;4.07;;
4597;SDS011;62772;48.646;8.906;2024-01-25T09:29:22;17.93;;;4.43;;
4597;SDS011;62772;48.646;8.906;2024-01-25T09:34:23;14.17;;;4.00;;
4597;SDS011;62772;48.646;8.906;2024-01-25T09:39:23;16.93;;;4.17;;
4597;SDS011;62772;48.646;8.906;2024-01-25T09:44:24;13.40;;;3.50;;
4597;SDS011;62772;48.646;8.906;2024-01-25T09:49:24;16.43;;;4.37;;
4597;SDS011;62772;48.646;8.906;2024-01-25T09:54:25;13.30;;;3.90;;
4597;SDS011;62772;48.646;8.906;2024-01-25T09:59:26;15.00;;;3.70;;
4597;SDS011;62772;48.646;8.906;2024-01-25T10:04:27;9.67;;;3.43;;
4597;SDS011;62772;48.646;8.906;2024-01-25T10:09:27;12.30;;;3.83;;
4597;SDS011;62772;48.646;8.906;2024-01-25T10:14:28;18.23;;;4.17;;
4597;SDS011;62772;48.646;8.906;2024-01-25T10:19:28;7.07;;;2.60;;
4597;SDS011;62772;48.646;8.906;2024-01-25T10:24:29;17.27;;;3.77;;
4597;SDS011;62772;48.646;8.906;2024-01-25T10:29:29;14.20;;;3.70;;
4597;SDS011;62772;48.646;8.906;2024-01-25T10:34:30;15.63;;;3.93;;
4597;SDS011;62772;48.646;8.906;2024-01-25T10:39:31;17.23;;;3.90;;
4597;SDS011;62772;48.646;8.906;2024-01-25T10:44:32;13.70;;;3.37;;
4597;SDS011;62772;48.646;8.906;2024-01-25T10:49:33;9.80;;;3.80;;
4597;SDS011;62772;48.646;8.906;2024-01-25T10:54:34;11.77;;;3.00;;
4597;SDS011;62772;48.646;8.906;2024-01-25T10:59:34;10.53;;;3.00;;
4597;SDS011;62772;48.646;8.906;2024-01-25T11:04:35;8.60;;;3.33;;
4597;SDS011;62772;48.646;8.906;2024-01-25T11:09:36;6.93;;;2.67;;
4597;SDS011;62772;48.646;8.906;2024-01-25T11:14:37;20.80;;;6.10;;
4597;SDS011;62772;48.646;8.906;2024-01-25T11:19:38;12.63;;;3.53;;
4597;SDS011;62772;48.646;8.906;2024-01-25T11:24:39;10.70;;;3.07;;
4597;SDS011;62772;48.646;8.906;2024-01-25T11:29:40;11.00;;;3.00;;
4597;SDS011;62772;48.646;8.906;2024-01-25T11:34:42;8.80;;;2.60;;
4597;SDS011;62772;48.646;8.906;2024-01-25T11:39:43;11.43;;;3.13;;
4597;SDS011;62772;48.646;8.906;2024-01-25T11:44:44;14.27;;;4.87;;
4597;SDS011;62772;48.646;8.906;2024-01-25T11:49:44;11.93;;;3.67;;
4597;SDS011;62772;48.646;8.906;2024-01-25T11:54:45;14.37;;;3.03;;
4597;SDS011;62772;48.646;8.906;2024-01-25T11:59:45;8.30;;;3.83;;
4597;SDS011;62772;48.646;8.906;2024-01-25T12:04:47;15.00;;;2.83;;
4597;SDS011;62772;48.646;8.906;2024-01-25T12:09:58;9.27;;;2.60;;
4597;SDS011;62772;48.646;8.906;2024-01-25T12:14:59;11.33;;;2.70;;
4597;SDS011;62772;48.646;8.906;2024-01-25T12:20:00;9.77;;;2.60;;
4597;SDS011;62772;48.646;8.906;2024-01-25T12:25:01;8.87;;;2.30;;
4597;SDS011;62772;48.646;8.906;2024-01-25T12:30:02;10.70;;;3.43;;
4597;SDS011;62772;48.646;8.906;2024-01-25T12:35:04;8.30;;;2.60;;
4597;SDS011;62772;48.646;8.906;2024-01-25T12:40:05;8.37;;;2.93;;
4597;SDS011;62772;48.646;8.906;2024-01-25T12:45:06;7.77;;;2.50;;
4597;SDS011;62772;48.646;8.906;2024-01-25T12:50:07;10.73;;;2.43;;
4597;SDS011;62772;48.646;8.906;2024-01-25T12:55:07;11.03;;;2.97;;
4597;SDS011;62772;48.646;8.906;2024-01-25T13:00:08;12.20;;;2.90;;
4597;SDS011;62772;48.646;8.906;2024-01-25T13:05:09;10.87;;;2.77;;
4597;SDS011;62772;48.646;8.906;2024-01-25T13:10:09;6.50;;;2.20;;
4597;SDS011;62772;48.646;8.906;2024-01-25T13:15:11;11.33;;;2.80;;
4597;SDS011;62772;48.646;8.906;2024-01-25T13:20:12;6.90;;;2.63;;
4597;SDS011;62772;48.646;8.906;2024-01-25T13:25:12;8.43;;;2.50;;
4597;SDS011;62772;48.646;8.906;2024-01-25T13:30:13;11.10;;;3.50;;
4597;SDS011;62772;48.646;8.906;2024-01-25T13:35:14;8.57;;;2.53;;
4597;SDS011;62772;48.646;8.906;2024-01-25T13:40:15;7.93;;;3.27;;
4597;SDS011;62772;48.646;8.906;2024-01-25T13:45:15;11.00;;;3.43;;
4597;SDS011;62772;48.646;8.906;2024-01-25T13:50:15;9.17;;;3.43;;
4597;SDS011;62772;48.646;8.906;2024-01-25T13:55:16;8.00;;;2.57;;
4597;SDS011;62772;48.646;8.906;2024-01-25T14:00:17;10.43;;;2.67;;
4597;SDS011;62772;48.646;8.906;2024-01-25T14:05:18;7.93;;;2.57;;
4597;SDS011;62772;48.646;8.906;2024-01-25T14:10:19;10.10;;;3.10;;
4597;SDS011;62772;48.646;8.906;2024-01-25T14:15:20;8.37;;;3.30;;
4597;SDS011;62772;48.646;8.906;2024-01-25T14:20:21;8.83;;;2.77;;
4597;SDS011;62772;48.646;8.906;2024-01-25T14:25:23;8.47;;;2.73;;
4597;SDS011;62772;48.646;8.906;2024-01-25T14:30:23;7.53;;;2.60;;
4597;SDS011;62772;48.646;8.906;2024-01-25T14:35:23;10.63;;;2.57;;
4597;SDS011;62772;48.646;8.906;2024-01-25T14:40:28;9.43;;;2.83;;
4597;SDS011;62772;48.646;8.906;2024-01-25T14:45:28;7.17;;;3.10;;
4597;SDS011;62772;48.646;8.906;2024-01-25T14:50:30;6.10;;;2.27;;
4597;SDS011;62772;48.646;8.906;2024-01-25T14:55:32;8.20;;;3.47;;
4597;SDS011;62772;48.646;8.906;2024-01-25T15:00:33;10.30;;;2.77;;
4597;SDS011;62772;48.646;8.906;2024-01-25T15:05:34;7.10;;;3.47;;
4597;SDS011;62772;48.646;8.906;2024-01-25T15:10:36;6.13;;;2.70;;
4597;SDS011;62772;48.646;8.906;2024-01-25T15:15:36;6.63;;;2.60;;
4597;SDS011;62772;48.646;8.906;2024-01-25T15:20:37;9.03;;;3.10;;
4597;SDS011;62772;48.646;8.906;2024-01-25T15:25:37;8.73;;;3.07;;
4597;SDS011;62772;48.646;8.906;2024-01-25T15:30:38;8.87;;;2.83;;
4597;SDS011;62772;48.646;8.906;2024-01-25T15:35:38;10.70;;;4.50;;
4597;SDS011;62772;48.646;8.906;2024-01-25T15:40:39;7.70;;;3.40;;
4597;SDS011;62772;48.646;8.906;2024-01-25T15:45:39;9.97;;;3.60;;
4597;SDS011;62772;48.646;8.906;2024-01-25T15:50:39;9.60;;;4.20;;
4597;SDS011;62772;48.646;8.906;2024-01-25T15:55:40;8.27;;;3.90;;
4597;SDS011;62772;48.646;8.906;2024-01-25T16:00:40;10.53;;;5.10;;
4597;SDS011;62772;48.646;8.906;2024-01-25T16:05:41;10.10;;;5.10;;
4597;SDS011;62772;48.646;8.906;2024-01-25T16:10:41;16.07;;;6.63;;
4597;SDS011;62772;48.646;8.906;2024-01-25T16:15:41;13.40;;;5.43;;
4597;SDS011;62772;48.646;8.906;2024-01-25T16:20:42;10.27;;;5.10;;
4597;SDS011;62772;48.646;8.906;2024-01-25T16:25:42;13.97;;;6.30;;
4597;SDS011;62772;48.646;8.906;2024-01-25T16:30:43;25.10;;;11.40;;
4597;SDS011;62772;48.646;8.906;2024-01-25T16:35:44;13.27;;;6.20;;
4597;SDS011;62772;48.646;8.906;2024-01-25T16:40:45;12.03;;;6.43;;
4597;SDS011;62772;48.646;8.906;2024-01-25T16:45:45;16.87;;;6.43;;
4597;SDS011;62772;48.646;8.906;2024-01-25T16:50:45;12.93;;;6.77;;
4597;SDS011;62772;48.646;8.906;2024-01-25T16:55:47;13.40;;;5.50;;
4597;SDS011;62772;48.646;8.906;2024-01-25T17:00:49;10.97;;;5.57;;
4597;SDS011;62772;48.646;8.906;2024-01-25T17:05:51;14.43;;;9.27;;
4597;SDS011;62772;48.646;8.906;2024-01-25T17:10:51;10.07;;;6.40;;
4597;SDS011;62772;48.646;8.906;2024-01-25T17:15:52;8.80;;;5.20;;
4597;SDS011;62772;48.646;8.906;2024-01-25T17:20:52;8.03;;;5.47;;
4597;SDS011;62772;48.646;8.906;2024-01-25T17:25:53;10.90;;;5.90;;
4597;SDS011;62772;48.646;8.906;2024-01-25T17:30:53;15.20;;;9.33;;
4597;SDS011;62772;48.646;8.906;2024-01-25T17:35:53;8.23;;;5.70;;
4597;SDS011;62772;48.646;8.906;2024-01-25T17:40:54;9.97;;;6.20;;
4597;SDS011;62772;48.646;8.906;2024-01-25T17:45:54;12.67;;;6.30;;
4597;SDS011;62772;48.646;8.906;2024-01-25T17:50:55;9.63;;;6.10;;
4597;SDS011;62772;48.646;8.906;2024-01-25T17:55:56;11.33;;;6.83;;
4597;SDS011;62772;48.646;8.906;2024-01-25T18:00:57;12.73;;;8.50;;
4597;SDS011;62772;48.646;8.906;2024-01-25T18:05:57;13.37;;;8.13;;
4597;SDS011;62772;48.646;8.906;2024-01-25T18:10:58;15.97;;;9.50;;
4597;SDS011;62772;48.646;8.906;2024-01-25T18:15:59;14.30;;;9.37;;
4597;SDS011;62772;48.646;8.906;2024-01-25T18:21:01;12.10;;;8.27;;
4597;SDS011;62772;48.646;8.906;2024-01-25T18:26:02;16.23;;;9.10;;
4597;SDS011;62772;48.646;8.906;2024-01-25T18:31:02;13.50;;;8.93;;
4597;SDS011;62772;48.646;8.906;2024-01-25T18:36:03;15.47;;;8.33;;
4597;SDS011;62772;48.646;8.906;2024-01-25T18:41:04;13.77;;;9.10;;
4597;SDS011;62772;48.646;8.906;2024-01-25T18:46:09;14.63;;;9.23;;
4597;SDS011;62772;48.646;8.906;2024-01-25T18:51:11;16.57;;;10.93;;
4597;SDS011;62772;48.646;8.906;2024-01-25T18:56:11;20.30;;;10.60;;
4597;SDS011;62772;48.646;8.906;2024-01-25T19:01:12;21.40;;;12.77;;
4597;SDS011;62772;48.646;8.906;2024-01-25T19:06:13;18.53;;;11.27;;
4597;SDS011;62772;48.646;8.906;2024-01-25T19:11:14;22.33;;;11.43;;
4597;SDS011;62772;48.646;8.906;2024-01-25T19:16:14;17.20;;;10.20;;
4597;SDS011;62772;48.646;8.906;2024-01-25T19:21:15;30.90;;;16.80;;
4597;SDS011;62772;48.646;8.906;2024-01-25T19:26:15;28.70;;;15.57;;
4597;SDS011;62772;48.646;8.906;2024-01-25T19:31:16;23.10;;;13.50;;
4597;SDS011;62772;48.646;8.906;2024-01-25T19:36:16;20.90;;;11.30;;
4597;SDS011;62772;48.646;8.906;2024-01-25T19:41:17;14.03;;;9.60;;
4597;SDS011;62772;48.646;8.906;2024-01-25T19:46:17;16.40;;;10.60;;
4597;SDS011;62772;48.646;8.906;2024-01-25T19:51:17;16.10;;;11.00;;
4597;SDS011;62772;48.646;8.906;2024-01-25T19:56:18;20.20;;;12.70;;
4597;SDS011;62772;48.646;8.906;2024-01-25T20:01:20;18.93;;;11.73;;
4597;SDS011;62772;48.646;8.906;2024-01-25T20:06:21;18.83;;;12.10;;
4597;SDS011;62772;48.646;8.906;2024-01-25T20:11:22;19.47;;;13.20;;
4597;SDS011;62772;48.646;8.906;2024-01-25T20:16:22;19.57;;;13.67;;
4597;SDS011;62772;48.646;8.906;2024-01-25T20:21:23;19.23;;;12.70;;
4597;SDS011;62772;48.646;8.906;2024-01-25T20:26:23;18.87;;;12.70;;
4597;SDS011;62772;48.646;8.906;2024-01-25T20:31:24;20.60;;;14.40;;
4597;SDS011;62772;48.646;8.906;2024-01-25T20:36:24;19.40;;;13.20;;
4597;SDS011;62772;48.646;8.906;2024-01-25T20:41:25;20.73;;;12.27;;
4597;SDS011;62772;48.646;8.906;2024-01-25T20:46:26;20.47;;;13.40;;
4597;SDS011;62772;48.646;8.906;2024-01-25T20:51:26;21.10;;;14.50;;
4597;SDS011;62772;48.646;8.906;2024-01-25T20:56:27;23.90;;;15.83;;
4597;SDS011;62772;48.646;8.906;2024-01-25T21:01:27;37.43;;;22.03;;
4597;SDS011;62772;48.646;8.906;2024-01-25T21:06:28;28.90;;;18.20;;
4597;SDS011;62772;48.646;8.906;2024-01-25T21:11:29;25.40;;;16.70;;
4597;SDS011;62772;48.646;8.906;2024-01-25T21:16:29;21.47;;;14.80;;
4597;SDS011;62772;48.646;8.906;2024-01-25T21:21:30;27.17;;;15.73;;
4597;SDS011;62772;48.646;8.906;2024-01-25T21:26:30;20.37;;;14.43;;
4597;SDS011;62772;48.646;8.906;2024-01-25T21:31:33;22.50;;;16.70;;
4597;SDS011;62772;48.646;8.906;2024-01-25T21:36:33;19.47;;;14.93;;
4597;SDS011;62772;48.646;8.906;2024-01-25T21:41:34;19.50;;;14.13;;
4597;SDS011;62772;48.646;8.906;2024-01-25T21:46:34;24.00;;;16.37;;
4597;SDS011;62772;48.646;8.906;2024-01-25T21:51:41;23.87;;;16.10;;
4597;SDS011;62772;48.646;8.906;2024-01-25T21:56:42;21.90;;;15.37;;
4597;SDS011;62772;48.646;8.906;2024-01-25T22:01:43;25.33;;;15.70;;
4597;SDS011;62772;48.646;8.906;2024-01-25T22:06:43;23.00;;;15.07;;
4597;SDS011;62772;48.646;8.906;2024-01-25T22:11:44;26.23;;;16.83;;
4597;SDS011;62772;48.646;8.906;2024-01-25T22:16:44;24.03;;;16.30;;
4597;SDS011;62772;48.646;8.906;2024-01-25T22:21:45;22.13;;;14.90;;
4597;SDS011;62772;48.646;8.906;2024-01-25T22:26:45;22.03;;;14.63;;
4597;SDS011;62772;48.646;8.906;2024-01-25T22:31:46;20.40;;;13.97;;
4597;SDS011;62772;48.646;8.906;2024-01-25T22:36:46;20.87;;;14.40;;
4597;SDS011;62772;48.646;8.906;2024-01-25T22:41:47;21.13;;;13.70;;
4597;SDS011;62772;48.646;8.906;2024-01-25T22:46:47;21.33;;;13.63;;
4597;SDS011;62772;48.646;8.906;2024-01-25T22:51:49;19.10;;;13.80;;
4597;SDS011;62772;48.646;8.906;2024-01-25T22:56:50;17.63;;;13.07;;
4597;SDS011;62772;48.646;8.906;2024-01-25T23:01:50;18.93;;;14.00;;
4597;SDS011;62772;48.646;8.906;2024-01-25T23:06:51;24.70;;;15.63;;
4597;SDS011;62772;48.646;8.906;2024-01-25T23:11:52;20.10;;;14.10;;
4597;SDS011;62772;48.646;8.906;2024-01-25T23:16:52;19.47;;;14.20;;
4597;SDS011;62772;48.646;8.906;2024-01-25T23:21:53;23.80;;;14.97;;
4597;SDS011;62772;48.646;8.906;2024-01-25T23:26:53;21.90;;;14.63;;
4597;SDS011;62772;48.646;8.906;2024-01-25T23:31:53;20.27;;;13.90;;
4597;SDS011;62772;48.646;8.906;2024-01-25T23:36:54;19.63;;;14.23;;
4597;SDS011;62772;48.646;8.906;2024-01-25T23:41:54;23.23;;;15.20;;
4597;SDS011;62772;48.646;8.906;2024-01-25T23:46:55;23.90;;;14.70;;
4597;SDS011;62772;48.646;8.906;2024-01-25T23:51:56;18.30;;;13.40;;
4597;SDS011;62772;48.646;8.906;2024-01-25T23:56:58;20.30;;;12.93;;
